Alt de Parq Ecuestre, Puerto Rico
Current Conditions -  °F | °C
As of 4:56 AM on Wednesday 22 Oct 2014 (Local Time) from TJSJ Reporting Station
Scattered Clouds Scattered Clouds  
Wind Chill: 26°   Ceiling: Unl
Heat Index: 28°   Visibility: 10mi
Dew Point: 23°   Wind: 0mph
Humidity: 82%   Direction: NA
Pressure: 29.93"   Gusts: NA
Location:  18.4083°N, 65.981°W
Report Text: TJSJ 220856Z 00000KT 10SM FEW023 SCT065 26/23 A2993 RMK AO2 SLP133 T02610228 56007
Loading
Personal Weather Stations






























Interactive Weather Map
Tropical Storm Tracking
New forecast layout! Learn more

10-Day Weather Forecast

Advertisements
Track Severe Weather on mobile